Taiki Maru — JI3464 — position and weather

sailwx.info

Track history (hours):
 
Tides and Currents Weather Stations Pressure Air Temp Water Temp Dewpoint Dewpoint Depression Visibility Wind Speed Wind Dir Waves Ship Positions

Taiki Maru

Last reported at 2014-Aug-28 09:32 UTC. Time now 2014-Sep-01 11:38 UTC.
Position N 34°59' E 139°30'.

Length 93 m; draft 5.2 m.

Type: Cargo ship. MMSI: 431300622.

Date/timePositionNaut miles runAvg speedWind from/ knotsBaromVisibWave heightAir tempDewpointWater temp
2014-Aug-28 09:32N 34°59' E 139°30'1313.6
2014-Aug-28 08:33N 35°07' E 139°43'1211.9
2014-Aug-28 07:34N 35°19' E 139°43'1211.7
2014-Aug-28 06:33N 35°29' E 139°51'7 6.7
2014-Aug-28 05:32N 35°28' E 139°59'0 0.0
2014-Aug-28 04:32N 35°28' E 139°59'0 0.0
2014-Aug-28 03:29N 35°28' E 139°59'0 0.0
2014-Aug-28 02:29N 35°28' E 139°59'0 0.0
2014-Aug-28 01:29N 35°28' E 139°59'0 0.1
2014-Aug-28 00:32N 35°28' E 139°59'3 3.2
2014-Aug-27 23:34N 35°30' E 139°56'1111.3
2014-Aug-27 22:33N 35°26' E 139°43'3 3.2
2014-Aug-27 21:32N 35°29' E 139°40'0 0.0
2014-Aug-27 20:32N 35°29' E 139°40'0 0.0
2014-Aug-27 19:32N 35°29' E 139°40'0 0.0
2014-Aug-27 18:32N 35°29' E 139°40'0 0.0
2014-Aug-27 17:32N 35°29' E 139°40'0 0.0
2014-Aug-27 16:32N 35°29' E 139°40'0 0.0
2014-Aug-27 15:32N 35°29' E 139°40'0 0.0
2014-Aug-27 14:32N 35°29' E 139°40'0 0.0
2014-Aug-27 13:32N 35°29' E 139°40'0 0.0
2014-Aug-27 12:32N 35°29' E 139°40'0 0.0
2014-Aug-27 11:32N 35°29' E 139°40'0 0.0
2014-Aug-27 10:32N 35°29' E 139°40'0 0.0
2014-Aug-27 09:32N 35°29' E 139°40'0 0.0
2014-Aug-27 08:32N 35°29' E 139°40'0 0.0
2014-Aug-27 07:32N 35°29' E 139°40'0 0.0
2014-Aug-27 06:32N 35°29' E 139°40'0 0.0
2014-Aug-27 05:32N 35°29' E 139°40'0 0.0
2014-Aug-27 04:32N 35°29' E 139°40'0 0.0
2014-Aug-27 03:32N 35°29' E 139°40'0 0.0
2014-Aug-27 02:32N 35°29' E 139°40'0 0.0
2014-Aug-27 01:32N 35°29' E 139°40'0 0.0
2014-Aug-27 00:32N 35°29' E 139°40'0 0.0
2014-Aug-26 23:32N 35°29' E 139°40'2 2.2
2014-Aug-26 22:33N 35°27' E 139°41'1 1.0
2014-Aug-26 21:32N 35°26' E 139°42'0 0.0
2014-Aug-26 20:32N 35°26' E 139°42'7 7.2
2014-Aug-26 19:33N 35°19' E 139°44'1110.9
2014-Aug-26 18:33N 35°08' E 139°46'1010.4
2014-Aug-26 17:33N 35°01' E 139°37'233 5.0
2014-Aug-24 18:26N 34°08' E 135°01'9 9.3
2014-Aug-24 17:31N 34°14' E 135°08'0 0.0
2014-Aug-24 16:31N 34°14' E 135°08'0 0.0
2014-Aug-24 15:31N 34°14' E 135°08'0 0.0
2014-Aug-24 14:31N 34°14' E 135°08'0 0.0
2014-Aug-24 13:31N 34°14' E 135°08'0 0.0
2014-Aug-24 12:31N 34°14' E 135°08'0 0.0
2014-Aug-24 11:33N 34°14' E 135°08'0 0.2
2014-Aug-24 10:34N 34°14' E 135°08'9 9.2
2014-Aug-24 09:33N 34°06' E 135°02'243 8.1
2014-Aug-23 03:31N 35°29' E 139°40'0 0.0
2014-Aug-23 02:31N 35°29' E 139°40'1 0.5
2014-Aug-23 01:33N 35°28' E 139°40'8 8.5
2014-Aug-23 00:34N 35°20' E 139°43'10 9.5
2014-Aug-22 23:33N 35°11' E 139°46'7 7.3
2014-Aug-22 22:34N 35°04' E 139°43'1212.4
2014-Aug-22 21:33N 34°57' E 139°31'  
Track history (hours):
 
Tides and Currents Weather Stations Pressure Air Temp Water Temp Dewpoint Dewpoint Depression Visibility Wind Speed Wind Dir Waves Ship Positions

Taiki Maru

Last reported at 2014-Aug-28 09:32 UTC. Time now 2014-Sep-01 11:38 UTC.
Position N 34°59' E 139°30'.

Length 93 m; draft 5.2 m.

Type: Cargo ship. MMSI: 431300622.

Date/timePositionNaut miles runAvg speedWind from/ knotsBaromVisibWave heightAir tempDewpointWater temp
2014-Aug-28 09:32N 34°59' E 139°30'1313.6
2014-Aug-28 08:33N 35°07' E 139°43'1211.9
2014-Aug-28 07:34N 35°19' E 139°43'1211.7
2014-Aug-28 06:33N 35°29' E 139°51'7 6.7
2014-Aug-28 05:32N 35°28' E 139°59'0 0.0
2014-Aug-28 04:32N 35°28' E 139°59'0 0.0
2014-Aug-28 03:29N 35°28' E 139°59'0 0.0
2014-Aug-28 02:29N 35°28' E 139°59'0 0.0
2014-Aug-28 01:29N 35°28' E 139°59'0 0.1
2014-Aug-28 00:32N 35°28' E 139°59'3 3.2
2014-Aug-27 23:34N 35°30' E 139°56'1111.3
2014-Aug-27 22:33N 35°26' E 139°43'3 3.2
2014-Aug-27 21:32N 35°29' E 139°40'0 0.0
2014-Aug-27 20:32N 35°29' E 139°40'0 0.0
2014-Aug-27 19:32N 35°29' E 139°40'0 0.0
2014-Aug-27 18:32N 35°29' E 139°40'0 0.0
2014-Aug-27 17:32N 35°29' E 139°40'0 0.0
2014-Aug-27 16:32N 35°29' E 139°40'0 0.0
2014-Aug-27 15:32N 35°29' E 139°40'0 0.0
2014-Aug-27 14:32N 35°29' E 139°40'0 0.0
2014-Aug-27 13:32N 35°29' E 139°40'0 0.0
2014-Aug-27 12:32N 35°29' E 139°40'0 0.0
2014-Aug-27 11:32N 35°29' E 139°40'0 0.0
2014-Aug-27 10:32N 35°29' E 139°40'0 0.0
2014-Aug-27 09:32N 35°29' E 139°40'0 0.0
2014-Aug-27 08:32N 35°29' E 139°40'0 0.0
2014-Aug-27 07:32N 35°29' E 139°40'0 0.0
2014-Aug-27 06:32N 35°29' E 139°40'0 0.0
2014-Aug-27 05:32N 35°29' E 139°40'0 0.0
2014-Aug-27 04:32N 35°29' E 139°40'0 0.0
2014-Aug-27 03:32N 35°29' E 139°40'0 0.0
2014-Aug-27 02:32N 35°29' E 139°40'0 0.0
2014-Aug-27 01:32N 35°29' E 139°40'0 0.0
2014-Aug-27 00:32N 35°29' E 139°40'0 0.0
2014-Aug-26 23:32N 35°29' E 139°40'2 2.2
2014-Aug-26 22:33N 35°27' E 139°41'1 1.0
2014-Aug-26 21:32N 35°26' E 139°42'0 0.0
2014-Aug-26 20:32N 35°26' E 139°42'7 7.2
2014-Aug-26 19:33N 35°19' E 139°44'1110.9
2014-Aug-26 18:33N 35°08' E 139°46'1010.4
2014-Aug-26 17:33N 35°01' E 139°37'233 5.0
2014-Aug-24 18:26N 34°08' E 135°01'9 9.3
2014-Aug-24 17:31N 34°14' E 135°08'0 0.0
2014-Aug-24 16:31N 34°14' E 135°08'0 0.0
2014-Aug-24 15:31N 34°14' E 135°08'0 0.0
2014-Aug-24 14:31N 34°14' E 135°08'0 0.0
2014-Aug-24 13:31N 34°14' E 135°08'0 0.0
2014-Aug-24 12:31N 34°14' E 135°08'0 0.0
2014-Aug-24 11:33N 34°14' E 135°08'0 0.2
2014-Aug-24 10:34N 34°14' E 135°08'9 9.2
2014-Aug-24 09:33N 34°06' E 135°02'243 8.1
2014-Aug-23 03:31N 35°29' E 139°40'0 0.0
2014-Aug-23 02:31N 35°29' E 139°40'1 0.5
2014-Aug-23 01:33N 35°28' E 139°40'8 8.5
2014-Aug-23 00:34N 35°20' E 139°43'10 9.5
2014-Aug-22 23:33N 35°11' E 139°46'7 7.3
2014-Aug-22 22:34N 35°04' E 139°43'1212.4
2014-Aug-22 21:33N 34°57' E 139°31'  

Dump ship's entire track history